Terminal Aerodrome Forecast
Issued by NWS Sterling, VA

Current Version | Previous Version | Graphics & Text | Print | Product List | Glossary On
Versions: 1 2 3 4 5 6 7 8 9 10 11 12 13 14 15 16 17 18 19 20 21 22 23 24 25 26 27
156
FTUS41 KLWX 292059 AAA
TAFDCA
TAF AMD
KDCA 292059Z 2921/3018 01006KT P6SM FEW050
     FM300400 03007KT P6SM SCT250
     FM301200 04006KT P6SM BKN100
     FM301600 11004KT P6SM BKN060=

USA.gov is the U.S. government's official web portal to all federal, state and local government web resources and services.